Mule Creek, New Mexico
Current Conditions -  °F | °C
As of 7:51 AM on Monday 24 Nov 2014 (Local Time) from KSAD Reporting Station
Clear Clear  
Wind Chill: 31°   Ceiling: Unl
Heat Index: 31°   Visibility: 10mi
Dew Point:   Wind: 0mph
Humidity: 28%   Direction: NA
Pressure: 30.21"   Gusts: NA
Location:  33.12°N, 108.96°W
Report Text: KSAD 241451Z AUTO 00000KT 10SM CLR M01/M17 A3021 RMK AO2 SLP228 T10061172 53015
Loading
Personal Weather Stations






























Interactive Weather Map New forecast layout! Learn more

10-Day Weather Forecast

Advertisements
Track Severe Weather on mobile